Latest METARs, TAFs and NOTAMs for ETSI


---------------------------------------------------------------------------
	(OBSERVATIONS)
ETSI 202120Z AUTO 00000KT 3400 // ////// 14/11 Q1017 ///=
ETSI 202020Z AUTO 20002KT 3300 // ////// 14/11 Q1016 ///=
ETSI 201920Z AUTO 18002KT 3300 // ////// 14/11 Q1016 ///=
---------------------------------------------------------------------------
	(FC)
TAF AMD ETSI 201404Z 2014/2023 21003KT 9999 NSW BKN090 BKN240
     TEMPO 2014/2017 24006KT 9999 NSW FEW040 SCT090 PROB30
     2021/2023 25006KT 8000 -SHRA FEW015 SCT040 OVC070 CANCEL
     1420=
---------------------------------------------------------------------------
	(TERMINAL AREA FORECAST)
AMD ETSI 201404Z 2014/2023 21003KT 9999  NSW  BKN090 BKN240
    TEMPO  2014/2017 24006KT 9999  NSW  FEW040 SCT090
    PROB30 2021/2023 25006KT 8000 -SHRA FEW015 SCT040 OVC070
    CANCEL 1420=
---------------------------------------------------------------------------
	(NOTAMS)


ETSI E1089/14 SPECIAL ACTIVITY AREA ESTABLISHED FOR GLIDER AEROBATICS
    RADIUS 3NM CENTERED AT 4842N 01132E INGOLSTADT/MANCHING AIRFIELD.
    GND - 6000FT AMSL, SAT-SUN 0700-SS, AUG 15 AND OCT 03 0700-SS,
    27 JUL 07:00 2014 UNTIL 25 OCT 16:07 2014. CREATED: 07 MAY
    08:22 2014

ETSI E1091/14 SPECIAL ACTIVITY AREA ESTABLISHED FOR GLIDER AEROBATICS
    RADIUS 3NM CENTERED AT 4842N 01132E INGOLSTADT/MANCHING AIRFIELD.
    GND - 6000FT AMSL, SAT-SUN 0700-SS, DEC 25 26 0700-SS, 26
    OCT 07:00 2014 UNTIL 28 DEC 15:14 2014. CREATED: 07 MAY 09:44
    2014

ETSI M1395/14 INGOLSTADT NDB IGL 345KHZ OUT OF SERVICE. 21 AUG
    08:30 2014 UNTIL 21 AUG 11:00 2014. CREATED: 20 AUG 09:27
    2014

ETSI P3206/14 AD ETSI: LVTO-PROCEDURE SUSPENDED. 23 MAY 07:58
    2014 UNTIL 22 AUG 12:00 2014. CREATED: 23 MAY 08:06 2014

ETSI P3207/14 AD ETSI: PAR RWY25R/07L OUT OF SERVICE. 23 MAY
    08:04 2014 UNTIL 22 AUG 12:00 2014. CREATED: 23 MAY 08:08
    2014

ETSI P3210/14 AD ETSI: NO SRA POSSIBLE. 23 MAY 09:02 2014 UNTIL
    22 AUG 12:00 2014. CREATED: 23 MAY 09:06 2014

ETSI P4408/14 AD ETSI: MIL OPS HOURS TUE-THU DAILY 0700-1400,
    OTHER TIMES CLSD, SEE NOTAM ETCZ P4404/14. , 05 AUG 07:00
    2014 UNTIL 28 AUG 14:00 2014. CREATED: 15 JUL 07:50 2014

ETSI P4417/14 AD ETSI: RWY25R/07L VFR ONLY. 15 JUL 11:10 2014
    UNTIL 10 OCT 12:00 2014. CREATED: 15 JUL 11:14 2014

ETSI P4618/14 AD ETSI: PAR RWY25L/07R OUT OF SERVICE. 25 JUL
    10:01 2014 UNTIL 29 AUG 12:00 2014. CREATED: 25 JUL 10:03
    2014

ETSI P4828/14 AD ETSI: AERODROME CLOSED EXCEPT CIVIL TRAFFIC
    WITH STRICTLY PPR, FOLLOWING DAYS: 08.,11.,15.,18.,22.,25.,29.
    AUGUST 01.,02. SEPTEMBER. 05 AUG 11:56 2014 UNTIL 02 SEP
    15:00 2014. CREATED: 05 AUG 12:02 2014

ETSI P5220/14 AD ETSI: RWY25L/07R CLOSED DUE TO CONSTRUCTION
    WORK. 18 SEP 14:00 2014 UNTIL 22 SEP 07:00 2014. CREATED:
    20 AUG 10:01 2014

---------------------------------------------------------------------------